createdAt,value
2023-02-18T00:00:03.984Z,10.50
2023-02-18T00:01:03.988Z,10.50
2023-02-18T00:02:04.126Z,10.50
2023-02-18T00:03:04.227Z,10.50
2023-02-18T00:04:04.329Z,10.44
2023-02-18T00:05:04.311Z,10.50
2023-02-18T00:06:04.468Z,10.50
2023-02-18T00:07:04.486Z,10.50
2023-02-18T00:08:04.547Z,10.50
2023-02-18T00:09:03.510Z,10.56
2023-02-18T00:10:03.673Z,10.50
2023-02-18T00:11:03.591Z,10.50
2023-02-18T00:12:03.668Z,10.50
2023-02-18T00:13:03.748Z,10.50
2023-02-18T00:14:03.759Z,10.50
2023-02-18T00:15:03.846Z,10.44
2023-02-18T00:16:03.877Z,10.50
2023-02-18T00:17:03.824Z,10.50
2023-02-18T00:18:03.998Z,10.50
2023-02-18T00:19:04.001Z,10.50
2023-02-18T00:20:03.984Z,10.44
2023-02-18T00:21:03.837Z,10.44
2023-02-18T00:22:03.823Z,10.44
2023-02-18T00:23:03.908Z,10.44
2023-02-18T00:24:03.982Z,10.44
2023-02-18T00:25:04.085Z,10.44
2023-02-18T00:26:03.908Z,10.44
2023-02-18T00:27:03.984Z,10.44
2023-02-18T00:28:03.985Z,10.44
2023-02-18T00:29:04.229Z,10.44
2023-02-18T00:30:04.223Z,10.44
2023-02-18T00:31:04.306Z,10.44
2023-02-18T00:32:04.368Z,10.44
2023-02-18T00:33:04.395Z,10.44
2023-02-18T00:34:04.304Z,10.44
2023-02-18T00:35:04.492Z,10.44
2023-02-18T00:36:04.470Z,10.44
2023-02-18T00:37:04.440Z,10.50
2023-02-18T00:38:03.510Z,10.50
2023-02-18T00:39:03.508Z,10.44
2023-02-18T00:40:03.584Z,10.44
2023-02-18T00:41:03.519Z,10.44
2023-02-18T00:42:03.597Z,10.44
2023-02-18T00:43:03.676Z,10.44
2023-02-18T00:44:03.596Z,10.44
2023-02-18T00:45:03.589Z,10.44
2023-02-18T00:46:03.515Z,10.50
2023-02-18T00:47:03.593Z,10.44
2023-02-18T00:48:03.577Z,10.44
2023-02-18T00:49:03.585Z,10.44
2023-02-18T00:50:03.592Z,10.50
2023-02-18T00:51:03.590Z,10.50
2023-02-18T00:52:03.590Z,10.50
2023-02-18T00:53:03.671Z,10.44
2023-02-18T00:54:03.666Z,10.44
2023-02-18T00:55:03.759Z,10.44
2023-02-18T00:56:03.672Z,10.44
2023-02-18T00:57:03.817Z,10.50
2023-02-18T00:58:03.763Z,10.50
2023-02-18T00:59:03.810Z,10.44
2023-02-18T01:00:03.753Z,10.44
2023-02-18T01:01:05.277Z,10.50
2023-02-18T01:02:03.991Z,10.50
2023-02-18T01:03:03.909Z,10.50
2023-02-18T01:04:03.994Z,10.44
2023-02-18T01:05:03.969Z,10.50
2023-02-18T01:06:03.936Z,10.44
2023-02-18T01:07:03.995Z,10.44
2023-02-18T01:08:04.076Z,10.44
2023-02-18T01:09:04.072Z,10.50
2023-02-18T01:10:04.396Z,10.50
2023-02-18T01:11:04.320Z,10.50
2023-02-18T01:12:04.324Z,10.50
2023-02-18T01:13:04.396Z,10.50
2023-02-18T01:14:04.397Z,10.50
2023-02-18T01:15:04.320Z,10.50
2023-02-18T01:16:04.446Z,10.50
2023-02-18T01:17:04.492Z,10.50
2023-02-18T01:18:03.527Z,10.50
2023-02-18T01:19:03.525Z,10.50
2023-02-18T01:20:03.598Z,10.50
2023-02-18T01:21:03.762Z,10.50
2023-02-18T01:22:03.759Z,10.50
2023-02-18T01:23:03.671Z,10.50
2023-02-18T01:24:03.668Z,10.50
2023-02-18T01:25:03.752Z,10.50
2023-02-18T01:26:03.852Z,10.50
2023-02-18T01:27:03.987Z,10.50
2023-02-18T01:28:04.003Z,10.50
2023-02-18T01:29:03.919Z,10.44
2023-02-18T01:30:04.098Z,10.50
2023-02-18T01:31:04.159Z,10.44
2023-02-18T01:32:04.262Z,10.44
2023-02-18T01:33:04.011Z,10.44
2023-02-18T01:34:04.146Z,10.44
2023-02-18T01:35:04.069Z,10.50
2023-02-18T01:36:04.236Z,10.44
2023-02-18T01:37:04.086Z,10.44
2023-02-18T01:38:04.305Z,10.50
2023-02-18T01:39:04.311Z,10.44
2023-02-18T01:40:04.218Z,10.44
2023-02-18T01:41:04.308Z,10.44
2023-02-18T01:42:04.337Z,10.44
2023-02-18T01:43:04.306Z,10.44
2023-02-18T01:44:04.477Z,10.44
2023-02-18T01:45:03.498Z,10.44
2023-02-18T01:46:03.514Z,10.44
2023-02-18T01:47:03.518Z,10.50
2023-02-18T01:48:03.508Z,10.50
2023-02-18T01:49:04.467Z,10.50
2023-02-18T01:50:04.382Z,10.50
2023-02-18T01:51:03.512Z,10.50
2023-02-18T01:52:03.679Z,10.50
2023-02-18T01:53:03.827Z,10.50
2023-02-18T01:54:03.662Z,10.50
2023-02-18T01:55:03.752Z,10.50
2023-02-18T01:56:03.925Z,10.44
2023-02-18T01:57:04.003Z,10.50
2023-02-18T01:58:04.062Z,10.50
2023-02-18T01:59:04.078Z,10.50
2023-02-18T02:00:04.163Z,10.50
2023-02-18T02:01:04.196Z,10.44
2023-02-18T02:02:04.144Z,10.44
2023-02-18T02:03:04.077Z,10.50
2023-02-18T02:04:04.166Z,10.44
2023-02-18T02:05:04.076Z,10.44
2023-02-18T02:06:04.062Z,10.44
2023-02-18T02:07:03.988Z,10.44
2023-02-18T02:08:03.984Z,10.50
2023-02-18T02:09:03.993Z,10.50
2023-02-18T02:10:04.063Z,10.44
2023-02-18T02:11:04.238Z,10.44
2023-02-18T02:12:04.262Z,10.50
2023-02-18T02:13:04.226Z,10.50
2023-02-18T02:14:04.231Z,10.44
2023-02-18T02:15:04.223Z,10.50
2023-02-18T02:16:04.301Z,10.50
2023-02-18T02:17:04.227Z,10.50
2023-02-18T02:18:04.343Z,10.44
2023-02-18T02:19:04.305Z,10.50
2023-02-18T02:20:04.465Z,10.50
2023-02-18T02:21:04.490Z,10.50
2023-02-18T02:22:04.390Z,10.50
2023-02-18T02:23:04.403Z,10.50
2023-02-18T02:24:04.405Z,10.50
2023-02-18T02:25:04.312Z,10.50
2023-02-18T02:26:04.389Z,10.50
2023-02-18T02:27:06.050Z,10.50
2023-02-18T02:28:04.405Z,10.50
2023-02-18T02:29:04.471Z,10.50
2023-02-18T02:30:04.395Z,10.50
2023-02-18T02:31:04.585Z,10.50
2023-02-18T02:32:04.400Z,10.50
2023-02-18T02:33:04.311Z,10.50
2023-02-18T02:34:04.396Z,10.50
2023-02-18T02:35:04.308Z,10.50
2023-02-18T02:36:04.305Z,10.50
2023-02-18T02:37:04.377Z,10.44
2023-02-18T02:38:04.403Z,10.44
2023-02-18T02:39:04.391Z,10.44
2023-02-18T02:40:04.417Z,10.44
2023-02-18T02:41:04.390Z,10.44
2023-02-18T02:42:03.519Z,10.44
2023-02-18T02:43:03.513Z,10.44
2023-02-18T02:44:03.675Z,10.44
2023-02-18T02:45:04.008Z,10.44
2023-02-18T02:46:04.220Z,10.44
2023-02-18T02:47:04.161Z,10.50
2023-02-18T02:48:04.153Z,10.44
2023-02-18T02:49:04.143Z,10.44
2023-02-18T02:50:04.259Z,10.50
2023-02-18T02:51:04.148Z,10.50
2023-02-18T02:52:04.280Z,10.50
2023-02-18T02:53:04.240Z,10.50
2023-02-18T02:54:04.243Z,10.50
2023-02-18T02:55:04.309Z,10.44
2023-02-18T02:56:04.312Z,10.44
2023-02-18T02:57:04.383Z,10.44
2023-02-18T02:58:04.470Z,10.44
2023-02-18T02:59:03.585Z,10.44
2023-02-18T03:00:03.695Z,10.44
2023-02-18T03:01:03.723Z,10.44
2023-02-18T03:02:03.591Z,10.44
2023-02-18T03:03:03.683Z,10.38
2023-02-18T03:04:03.602Z,10.38
2023-02-18T03:05:03.753Z,10.38
2023-02-18T03:06:03.672Z,10.38
2023-02-18T03:07:03.607Z,10.38
2023-02-18T03:08:03.587Z,10.38
2023-02-18T03:09:03.844Z,10.38
2023-02-18T03:10:03.763Z,10.38
2023-02-18T03:11:03.836Z,10.38
2023-02-18T03:12:03.843Z,10.38
2023-02-18T03:13:03.903Z,10.38
2023-02-18T03:14:03.911Z,10.38
2023-02-18T03:15:03.989Z,10.38
2023-02-18T03:16:04.010Z,10.38
2023-02-18T03:17:03.996Z,10.38
2023-02-18T03:18:04.149Z,10.38
2023-02-18T03:19:04.153Z,10.38
2023-02-18T03:20:04.237Z,10.38
2023-02-18T03:21:04.227Z,10.38
2023-02-18T03:22:04.233Z,10.38
2023-02-18T03:23:04.242Z,10.38
2023-02-18T03:24:04.245Z,10.38
2023-02-18T03:25:04.145Z,10.38
2023-02-18T03:26:04.326Z,10.38
2023-02-18T03:27:04.319Z,10.38
2023-02-18T03:28:04.428Z,10.38
2023-02-18T03:29:04.414Z,10.38
2023-02-18T03:30:04.460Z,10.38
2023-02-18T03:31:04.336Z,10.38
2023-02-18T03:32:04.420Z,10.38
2023-02-18T03:33:03.515Z,10.38
2023-02-18T03:34:03.521Z,10.38
2023-02-18T03:35:03.609Z,10.38
2023-02-18T03:36:03.516Z,10.38
2023-02-18T03:37:03.522Z,10.44
2023-02-18T03:38:03.586Z,10.38
2023-02-18T03:39:03.593Z,10.38
2023-02-18T03:40:03.709Z,10.38
2023-02-18T03:41:03.598Z,10.38
2023-02-18T03:42:03.663Z,10.38
2023-02-18T03:43:03.590Z,10.38
2023-02-18T03:44:03.685Z,10.38
2023-02-18T03:45:03.631Z,10.38
2023-02-18T03:46:03.729Z,10.31
2023-02-18T03:47:03.671Z,10.31
2023-02-18T03:48:03.841Z,10.31
2023-02-18T03:49:03.750Z,10.31
2023-02-18T03:50:03.853Z,10.31
2023-02-18T03:51:03.843Z,10.31
2023-02-18T03:52:03.911Z,10.31
2023-02-18T03:53:03.925Z,10.31
2023-02-18T03:54:03.927Z,10.31
2023-02-18T03:55:03.845Z,10.31
2023-02-18T03:56:03.840Z,10.31
2023-02-18T03:57:03.832Z,10.31
2023-02-18T03:58:03.820Z,10.31
2023-02-18T03:59:04.711Z,10.31
2023-02-18T04:00:03.848Z,10.31
2023-02-18T04:01:03.958Z,10.31
2023-02-18T04:02:03.842Z,10.31
2023-02-18T04:03:03.912Z,10.31
2023-02-18T04:04:04.035Z,10.25
2023-02-18T04:05:03.999Z,10.25
2023-02-18T04:06:04.162Z,10.25
2023-02-18T04:07:04.175Z,10.31
2023-02-18T04:08:04.175Z,10.31
2023-02-18T04:09:04.162Z,10.25
2023-02-18T04:10:04.156Z,10.25
2023-02-18T04:11:04.150Z,10.25
2023-02-18T04:12:04.068Z,10.25
2023-02-18T04:13:04.230Z,10.25
2023-02-18T04:14:04.241Z,10.25
2023-02-18T04:15:04.324Z,10.25
2023-02-18T04:16:04.227Z,10.25
2023-02-18T04:17:04.308Z,10.25
2023-02-18T04:18:04.301Z,10.25
2023-02-18T04:19:04.383Z,10.25
2023-02-18T04:20:04.459Z,10.25
2023-02-18T04:21:03.529Z,10.25
2023-02-18T04:22:04.460Z,10.25
2023-02-18T04:23:03.502Z,10.25
2023-02-18T04:24:03.664Z,10.25
2023-02-18T04:25:03.588Z,10.25
2023-02-18T04:26:03.754Z,10.25
2023-02-18T04:27:03.684Z,10.25
2023-02-18T04:28:03.675Z,10.25
2023-02-18T04:29:03.671Z,10.25
2023-02-18T04:30:03.778Z,10.25
2023-02-18T04:31:03.706Z,10.25
2023-02-18T04:32:03.790Z,10.25
2023-02-18T04:33:03.668Z,10.25
2023-02-18T04:34:03.657Z,10.25
2023-02-18T04:35:03.670Z,10.25
2023-02-18T04:36:03.670Z,10.25
2023-02-18T04:37:03.576Z,10.25
2023-02-18T04:38:03.580Z,10.25
2023-02-18T04:39:03.924Z,10.25
2023-02-18T04:40:03.999Z,10.25
2023-02-18T04:41:03.993Z,10.25
2023-02-18T04:42:03.908Z,10.25
2023-02-18T04:43:03.942Z,10.25
2023-02-18T04:44:03.938Z,10.25
2023-02-18T04:45:04.145Z,10.19
2023-02-18T04:46:04.210Z,10.19
2023-02-18T04:47:04.378Z,10.19
2023-02-18T04:48:04.385Z,10.19
2023-02-18T04:49:04.394Z,10.19
2023-02-18T04:50:04.382Z,10.19
2023-02-18T04:51:04.395Z,10.19
2023-02-18T04:52:03.534Z,10.25
2023-02-18T04:53:04.467Z,10.25
2023-02-18T04:54:03.529Z,10.25
2023-02-18T04:55:03.592Z,10.19
2023-02-18T04:56:03.516Z,10.19
2023-02-18T04:57:03.502Z,10.19
2023-02-18T04:58:03.669Z,10.25
2023-02-18T04:59:03.673Z,10.25
2023-02-18T05:00:05.420Z,10.25
2023-02-18T05:01:03.633Z,10.25
2023-02-18T05:02:03.761Z,10.25
2023-02-18T05:03:03.758Z,10.25
2023-02-18T05:04:03.859Z,10.25
2023-02-18T05:05:03.756Z,10.19
2023-02-18T05:06:03.746Z,10.25
2023-02-18T05:07:03.672Z,10.19
2023-02-18T05:08:03.741Z,10.19
2023-02-18T05:09:03.835Z,10.25
2023-02-18T05:10:03.832Z,10.25
2023-02-18T05:11:03.838Z,10.25
2023-02-18T05:12:03.914Z,10.25
2023-02-18T05:13:03.928Z,10.25
2023-02-18T05:14:04.800Z,10.25
2023-02-18T05:15:03.907Z,10.25
2023-02-18T05:16:04.911Z,10.25
2023-02-18T05:17:03.908Z,10.25
2023-02-18T05:18:04.075Z,10.25
2023-02-18T05:19:04.074Z,10.25
2023-02-18T05:20:04.242Z,10.25
2023-02-18T05:21:04.235Z,10.25
2023-02-18T05:22:04.322Z,10.25
2023-02-18T05:23:04.236Z,10.25
2023-02-18T05:24:04.391Z,10.25
2023-02-18T05:25:04.580Z,10.25
2023-02-18T05:26:03.512Z,10.19
2023-02-18T05:27:03.683Z,10.19
2023-02-18T05:28:03.621Z,10.19
2023-02-18T05:29:03.587Z,10.19
2023-02-18T05:30:03.704Z,10.12
2023-02-18T05:31:03.839Z,10.12
2023-02-18T05:32:03.816Z,10.12
2023-02-18T05:33:03.836Z,10.19
2023-02-18T05:34:03.928Z,10.12
2023-02-18T05:35:03.849Z,10.12
2023-02-18T05:36:03.760Z,10.12
2023-02-18T05:37:03.753Z,10.12
2023-02-18T05:38:03.666Z,10.12
2023-02-18T05:39:03.513Z,10.12
2023-02-18T05:40:03.623Z,10.12
2023-02-18T05:41:03.601Z,10.12
2023-02-18T05:42:03.677Z,10.12
2023-02-18T05:43:03.752Z,10.12
2023-02-18T05:44:03.816Z,10.12
2023-02-18T05:45:03.823Z,10.12
2023-02-18T05:46:04.039Z,10.06
2023-02-18T05:47:03.918Z,10.06
2023-02-18T05:48:03.991Z,10.06
2023-02-18T05:49:04.016Z,10.06
2023-02-18T05:50:04.004Z,10.06
2023-02-18T05:51:04.003Z,10.06
2023-02-18T05:52:03.993Z,10.06
2023-02-18T05:53:04.157Z,10.06
2023-02-18T05:54:04.236Z,10.06
2023-02-18T05:55:04.313Z,10.06
2023-02-18T05:56:04.264Z,10.06
2023-02-18T05:57:04.274Z,10.06
2023-02-18T05:58:04.395Z,10.06
2023-02-18T05:59:04.304Z,10.06
2023-02-18T06:00:04.388Z,10.06
2023-02-18T06:01:04.405Z,10.06
2023-02-18T06:02:03.513Z,10.06
2023-02-18T06:03:03.705Z,10.06
2023-02-18T06:04:04.474Z,10.06
2023-02-18T06:05:04.392Z,10.06
2023-02-18T06:06:04.477Z,10.06
2023-02-18T06:07:03.515Z,10.06
2023-02-18T06:08:04.343Z,10.06
2023-02-18T06:09:04.316Z,10.06
2023-02-18T06:10:04.258Z,10.06
2023-02-18T06:11:04.319Z,10.06
2023-02-18T06:12:04.230Z,10.06
2023-02-18T06:13:04.239Z,10.06
2023-02-18T06:14:04.144Z,10.06
2023-02-18T06:15:04.229Z,10.06
2023-02-18T06:16:04.363Z,10.06
2023-02-18T06:17:03.610Z,10.06
2023-02-18T06:18:03.507Z,10.06
2023-02-18T06:19:03.678Z,10.06
2023-02-18T06:20:03.762Z,10.00
2023-02-18T06:21:03.836Z,10.06
2023-02-18T06:22:03.997Z,10.00
2023-02-18T06:23:03.913Z,10.06
2023-02-18T06:24:03.779Z,10.06
2023-02-18T06:25:03.675Z,10.06
2023-02-18T06:26:03.826Z,10.06
2023-02-18T06:27:03.750Z,10.06
2023-02-18T06:28:03.768Z,10.06
2023-02-18T06:29:03.750Z,10.19
2023-02-18T06:30:03.791Z,10.38
2023-02-18T06:31:04.014Z,10.44
2023-02-18T06:32:03.993Z,10.44
2023-02-18T06:33:03.828Z,10.50
2023-02-18T06:34:03.926Z,10.62
2023-02-18T06:35:04.034Z,10.62
2023-02-18T06:36:03.963Z,10.62
2023-02-18T06:37:04.070Z,10.56
2023-02-18T06:38:04.062Z,10.56
2023-02-18T06:39:04.073Z,10.50
2023-02-18T06:40:04.151Z,10.50
2023-02-18T06:41:04.152Z,10.44
2023-02-18T06:42:04.229Z,10.38
2023-02-18T06:43:04.250Z,10.38
2023-02-18T06:44:04.311Z,10.38
2023-02-18T06:45:04.221Z,10.38
2023-02-18T06:46:04.309Z,10.38
2023-02-18T06:47:04.473Z,10.31
2023-02-18T06:48:04.466Z,10.31
2023-02-18T06:49:04.478Z,10.31
2023-02-18T06:50:04.504Z,10.31
2023-02-18T06:51:04.389Z,10.31
2023-02-18T06:52:03.515Z,10.31
2023-02-18T06:53:03.503Z,10.31
2023-02-18T06:54:03.666Z,10.31
2023-02-18T06:55:03.663Z,10.31
2023-02-18T06:56:03.674Z,10.31
2023-02-18T06:57:03.586Z,10.31
2023-02-18T06:58:03.675Z,10.31
2023-02-18T06:59:03.667Z,10.31
2023-02-18T07:00:03.719Z,10.31
2023-02-18T07:01:03.752Z,10.31
2023-02-18T07:02:03.661Z,10.31
2023-02-18T07:03:03.595Z,10.31
2023-02-18T07:04:03.721Z,10.31
2023-02-18T07:05:03.592Z,10.31
2023-02-18T07:06:03.515Z,10.31
2023-02-18T07:07:03.504Z,10.38
2023-02-18T07:08:03.503Z,10.38
2023-02-18T07:09:03.583Z,10.38
2023-02-18T07:10:03.751Z,10.38
2023-02-18T07:11:03.747Z,10.38
2023-02-18T07:12:03.781Z,10.38
2023-02-18T07:13:03.696Z,10.44
2023-02-18T07:14:03.746Z,10.44
2023-02-18T07:15:03.849Z,10.44
2023-02-18T07:16:03.847Z,10.44
2023-02-18T07:17:03.909Z,10.44
2023-02-18T07:18:03.878Z,10.44
2023-02-18T07:19:03.848Z,10.44
2023-02-18T07:20:03.912Z,10.50
2023-02-18T07:21:03.911Z,10.44
2023-02-18T07:22:03.985Z,10.50
2023-02-18T07:23:04.074Z,10.50
2023-02-18T07:24:03.980Z,10.56
2023-02-18T07:25:03.911Z,10.56
2023-02-18T07:26:03.996Z,10.56
2023-02-18T07:27:03.938Z,10.56
2023-02-18T07:28:03.999Z,10.56
2023-02-18T07:29:04.064Z,10.62
2023-02-18T07:30:04.190Z,10.62
2023-02-18T07:31:04.282Z,10.62
2023-02-18T07:32:04.278Z,10.62
2023-02-18T07:33:04.338Z,10.62
2023-02-18T07:34:04.307Z,10.62
2023-02-18T07:35:04.407Z,10.62
2023-02-18T07:36:04.305Z,10.62
2023-02-18T07:37:04.462Z,10.62
2023-02-18T07:38:04.385Z,10.69
2023-02-18T07:39:03.517Z,10.69
2023-02-18T07:40:03.510Z,10.69
2023-02-18T07:41:03.506Z,10.75
2023-02-18T07:42:03.671Z,10.75
2023-02-18T07:43:03.585Z,10.75
2023-02-18T07:44:03.670Z,10.75
2023-02-18T07:45:03.681Z,10.81
2023-02-18T07:46:03.637Z,10.81
2023-02-18T07:47:03.670Z,10.81
2023-02-18T07:48:03.674Z,10.88
2023-02-18T07:49:03.659Z,10.88
2023-02-18T07:50:03.759Z,10.88
2023-02-18T07:51:03.752Z,10.88
2023-02-18T07:52:04.572Z,10.94
2023-02-18T07:53:03.830Z,10.94
2023-02-18T07:54:03.911Z,10.94
2023-02-18T07:55:04.004Z,11.00
2023-02-18T07:56:03.997Z,11.00
2023-02-18T07:57:04.180Z,11.06
2023-02-18T07:58:04.229Z,11.06
2023-02-18T07:59:04.230Z,11.12
2023-02-18T08:00:04.233Z,11.12
2023-02-18T08:01:04.222Z,11.12
2023-02-18T08:02:04.335Z,11.06
2023-02-18T08:03:04.403Z,11.12
2023-02-18T08:04:04.502Z,11.12
2023-02-18T08:05:04.464Z,11.12
2023-02-18T08:06:03.522Z,11.19
2023-02-18T08:07:03.516Z,11.19
2023-02-18T08:08:03.690Z,11.19
2023-02-18T08:09:03.668Z,11.25
2023-02-18T08:10:03.738Z,11.19
2023-02-18T08:11:13.237Z,11.19
2023-02-18T08:12:03.743Z,11.25
2023-02-18T08:13:03.684Z,11.25
2023-02-18T08:14:03.678Z,11.31
2023-02-18T08:15:03.622Z,11.31
2023-02-18T08:16:03.668Z,11.31
2023-02-18T08:17:03.665Z,11.31
2023-02-18T08:18:03.749Z,11.31
2023-02-18T08:19:03.664Z,11.31
2023-02-18T08:20:03.674Z,11.38
2023-02-18T08:21:03.593Z,11.38
2023-02-18T08:22:03.520Z,11.44
2023-02-18T08:23:03.524Z,11.44
2023-02-18T08:24:03.634Z,11.44
2023-02-18T08:25:04.554Z,11.50
2023-02-18T08:26:03.672Z,11.50
2023-02-18T08:27:03.758Z,11.50
2023-02-18T08:28:03.752Z,11.56
2023-02-18T08:29:03.837Z,11.56
2023-02-18T08:30:03.818Z,11.50
2023-02-18T08:31:04.404Z,11.56
2023-02-18T08:32:04.154Z,11.56
2023-02-18T08:33:04.075Z,11.56
2023-02-18T08:34:04.354Z,11.56
2023-02-18T08:35:04.407Z,11.62
2023-02-18T08:36:04.307Z,11.56
2023-02-18T08:37:04.229Z,11.62
2023-02-18T08:38:04.320Z,11.62
2023-02-18T08:39:04.392Z,11.62
2023-02-18T08:40:04.308Z,11.62
2023-02-18T08:41:04.245Z,11.62
2023-02-18T08:42:04.312Z,11.69
2023-02-18T08:43:04.311Z,11.69
2023-02-18T08:44:04.243Z,11.69
2023-02-18T08:45:04.400Z,11.69
2023-02-18T08:46:04.433Z,11.69
2023-02-18T08:47:04.489Z,11.69
2023-02-18T08:48:18.946Z,11.69
2023-02-18T08:49:08.636Z,11.69
2023-02-18T08:50:04.467Z,11.75
2023-02-18T08:51:03.516Z,11.75
2023-02-18T08:52:03.525Z,11.75
2023-02-18T08:53:03.584Z,11.75
2023-02-18T08:54:03.516Z,11.75
2023-02-18T08:55:03.592Z,11.75
2023-02-18T08:56:03.590Z,11.75
2023-02-18T08:57:03.665Z,11.75
2023-02-18T08:58:03.747Z,11.75
2023-02-18T08:59:03.930Z,11.81
2023-02-18T09:00:03.926Z,11.81
2023-02-18T09:01:03.968Z,11.81
2023-02-18T09:02:03.919Z,11.81
2023-02-18T09:03:03.909Z,11.88
2023-02-18T09:04:04.018Z,11.88
2023-02-18T09:05:03.913Z,11.88
2023-02-18T09:06:03.986Z,11.94
2023-02-18T09:07:04.143Z,11.94
2023-02-18T09:08:04.240Z,11.94
2023-02-18T09:09:04.303Z,11.94
2023-02-18T09:10:04.396Z,11.94
2023-02-18T09:11:04.512Z,12.00
2023-02-18T09:12:04.401Z,12.00
2023-02-18T09:13:04.489Z,12.00
2023-02-18T09:14:03.597Z,12.00
2023-02-18T09:15:03.525Z,12.00
2023-02-18T09:16:03.721Z,12.06
2023-02-18T09:17:03.751Z,12.06
2023-02-18T09:18:03.673Z,12.12
2023-02-18T09:19:03.600Z,12.12
2023-02-18T09:20:03.669Z,12.12
2023-02-18T09:21:03.799Z,12.19
2023-02-18T09:22:03.671Z,12.19
2023-02-18T09:23:03.769Z,12.25
2023-02-18T09:24:03.919Z,12.25
2023-02-18T09:25:03.837Z,12.25
2023-02-18T09:26:03.840Z,12.25
2023-02-18T09:27:03.844Z,12.31
2023-02-18T09:28:03.916Z,12.31
2023-02-18T09:29:03.822Z,12.38
2023-02-18T09:30:03.923Z,12.38
2023-02-18T09:31:03.960Z,12.44
2023-02-18T09:32:03.941Z,12.44
2023-02-18T09:33:03.911Z,12.44
2023-02-18T09:34:03.834Z,12.50
2023-02-18T09:35:03.810Z,12.50
2023-02-18T09:36:03.794Z,12.50
2023-02-18T09:37:03.668Z,12.50
2023-02-18T09:38:03.743Z,12.50
2023-02-18T09:39:03.752Z,12.56
2023-02-18T09:40:03.759Z,12.56
2023-02-18T09:41:03.672Z,12.56
2023-02-18T09:42:03.757Z,12.62
2023-02-18T09:43:03.763Z,12.62
2023-02-18T09:44:03.755Z,12.62
2023-02-18T09:45:03.588Z,12.62
2023-02-18T09:46:03.654Z,12.62
2023-02-18T09:47:03.609Z,12.69
2023-02-18T09:48:03.678Z,12.69
2023-02-18T09:49:03.805Z,12.69
2023-02-18T09:50:03.754Z,12.69
2023-02-18T09:51:03.753Z,12.69
2023-02-18T09:52:03.602Z,12.69
2023-02-18T09:53:03.577Z,12.69
2023-02-18T09:54:03.588Z,12.69
2023-02-18T09:55:03.590Z,12.69
2023-02-18T09:56:03.523Z,12.69
2023-02-18T09:57:04.478Z,12.69
2023-02-18T09:58:04.396Z,12.69
2023-02-18T09:59:03.426Z,12.69
2023-02-18T10:00:03.534Z,12.69
2023-02-18T10:01:03.578Z,12.69
2023-02-18T10:02:03.597Z,12.69
2023-02-18T10:03:03.583Z,12.69
2023-02-18T10:04:03.507Z,12.69
2023-02-18T10:05:03.587Z,12.75
2023-02-18T10:06:03.515Z,12.69
2023-02-18T10:07:03.451Z,12.75
2023-02-18T10:08:03.773Z,12.69
2023-02-18T10:09:03.926Z,12.75
2023-02-18T10:10:03.760Z,12.69
2023-02-18T10:11:03.840Z,12.69
2023-02-18T10:12:03.835Z,12.69
2023-02-18T10:13:03.913Z,12.69
2023-02-18T10:14:03.992Z,12.69
2023-02-18T10:15:04.068Z,12.62
2023-02-18T10:16:04.148Z,12.62
2023-02-18T10:17:04.079Z,12.62
2023-02-18T10:18:04.104Z,12.56
2023-02-18T10:19:04.163Z,12.56
2023-02-18T10:20:06.189Z,12.56
2023-02-18T10:21:04.154Z,12.56
2023-02-18T10:22:04.238Z,12.50
2023-02-18T10:23:04.220Z,12.56
2023-02-18T10:24:04.306Z,12.50
2023-02-18T10:25:04.326Z,12.50
2023-02-18T10:26:04.314Z,12.50
2023-02-18T10:27:04.324Z,12.50
2023-02-18T10:28:04.311Z,12.50
2023-02-18T10:29:04.570Z,12.50
2023-02-18T10:30:03.493Z,12.44
2023-02-18T10:31:03.764Z,12.44
2023-02-18T10:32:03.787Z,12.44
2023-02-18T10:33:03.761Z,12.44
2023-02-18T10:34:03.675Z,12.44
2023-02-18T10:35:03.774Z,12.44
2023-02-18T10:36:03.835Z,12.44
2023-02-18T10:37:03.919Z,12.44
2023-02-18T10:38:03.914Z,12.44
2023-02-18T10:39:03.910Z,12.44
2023-02-18T10:40:04.001Z,12.44
2023-02-18T10:41:03.908Z,12.44
2023-02-18T10:42:03.914Z,12.44
2023-02-18T10:43:03.997Z,12.44
2023-02-18T10:44:03.999Z,12.44
2023-02-18T10:45:04.000Z,12.44
2023-02-18T10:46:03.907Z,12.50
2023-02-18T10:47:03.835Z,12.50
2023-02-18T10:48:03.839Z,12.50
2023-02-18T10:49:03.832Z,12.44
2023-02-18T10:50:03.918Z,12.50
2023-02-18T10:51:03.923Z,12.50
2023-02-18T10:52:03.992Z,12.44
2023-02-18T10:53:04.167Z,12.50
2023-02-18T10:54:04.069Z,12.44
2023-02-18T10:55:04.146Z,12.44
2023-02-18T10:56:04.123Z,12.44
2023-02-18T10:57:04.605Z,12.44
2023-02-18T10:58:04.323Z,12.44
2023-02-18T10:59:04.156Z,12.44
2023-02-18T11:00:04.287Z,12.44
2023-02-18T11:01:04.148Z,12.44
2023-02-18T11:02:04.147Z,12.44
2023-02-18T11:03:04.153Z,12.44
2023-02-18T11:04:04.224Z,12.44
2023-02-18T11:05:04.249Z,12.44
2023-02-18T11:06:04.239Z,12.44
2023-02-18T11:07:04.232Z,12.44
2023-02-18T11:08:04.231Z,12.44
2023-02-18T11:09:04.311Z,12.38
2023-02-18T11:10:04.409Z,12.38
2023-02-18T11:11:04.318Z,12.31
2023-02-18T11:12:08.910Z,12.31
2023-02-18T11:13:04.390Z,12.31
2023-02-18T11:14:04.390Z,12.31
2023-02-18T11:15:04.336Z,12.25
2023-02-18T11:16:04.328Z,12.25
2023-02-18T11:17:04.410Z,12.25
2023-02-18T11:18:04.333Z,12.19
2023-02-18T11:19:04.314Z,12.19
2023-02-18T11:20:04.479Z,12.19
2023-02-18T11:21:03.669Z,12.12
2023-02-18T11:22:03.581Z,12.12
2023-02-18T11:23:03.665Z,12.12
2023-02-18T11:24:03.657Z,12.06
2023-02-18T11:25:03.588Z,12.00
2023-02-18T11:26:03.660Z,12.00
2023-02-18T11:27:03.662Z,11.94
2023-02-18T11:28:03.749Z,11.88
2023-02-18T11:29:03.842Z,11.88
2023-02-18T11:30:03.868Z,11.81
2023-02-18T11:31:03.732Z,11.81
2023-02-18T11:32:03.826Z,11.81
2023-02-18T11:33:03.761Z,11.75
2023-02-18T11:34:03.749Z,11.75
2023-02-18T11:35:03.664Z,11.75
2023-02-18T11:36:03.597Z,11.69
2023-02-18T11:37:03.593Z,11.69
2023-02-18T11:38:03.606Z,11.69
2023-02-18T11:39:03.670Z,11.62
2023-02-18T11:40:03.678Z,11.62
2023-02-18T11:41:03.842Z,11.56
2023-02-18T11:42:03.844Z,11.56
2023-02-18T11:43:03.920Z,11.56
2023-02-18T11:44:03.919Z,11.56
2023-02-18T11:45:05.457Z,11.56
2023-02-18T11:46:03.746Z,11.56
2023-02-18T11:47:03.822Z,11.50
2023-02-18T11:48:03.825Z,11.50
2023-02-18T11:49:03.821Z,11.50
2023-02-18T11:50:03.902Z,11.50
2023-02-18T11:51:05.281Z,11.50
2023-02-18T11:52:03.918Z,11.44
2023-02-18T11:53:03.904Z,11.44
2023-02-18T11:54:04.145Z,11.44
2023-02-18T11:55:03.981Z,11.44
2023-02-18T11:56:04.003Z,11.44
2023-02-18T11:57:03.992Z,11.44
2023-02-18T11:58:03.989Z,11.44
2023-02-18T11:59:03.924Z,11.44
2023-02-18T12:00:04.860Z,11.44
2023-02-18T12:01:03.839Z,11.44
2023-02-18T12:02:03.867Z,11.44
2023-02-18T12:03:03.823Z,11.44
2023-02-18T12:04:03.906Z,11.44
2023-02-18T12:05:04.059Z,11.44
2023-02-18T12:06:03.993Z,11.44
2023-02-18T12:07:03.996Z,11.44
2023-02-18T12:08:04.007Z,11.50
2023-02-18T12:09:03.906Z,11.50
2023-02-18T12:10:04.074Z,11.50
2023-02-18T12:11:03.985Z,11.50
2023-02-18T12:12:03.990Z,11.50
2023-02-18T12:13:03.909Z,11.50
2023-02-18T12:14:03.999Z,11.50
2023-02-18T12:15:04.024Z,11.50
2023-02-18T12:16:03.910Z,11.50
2023-02-18T12:17:04.013Z,11.50
2023-02-18T12:18:03.994Z,11.50
2023-02-18T12:19:04.073Z,11.50
2023-02-18T12:20:04.235Z,11.56
2023-02-18T12:21:04.171Z,11.50
2023-02-18T12:22:04.153Z,11.56
2023-02-18T12:23:04.162Z,11.50
2023-02-18T12:24:04.077Z,11.50
2023-02-18T12:25:04.068Z,11.50
2023-02-18T12:26:04.068Z,11.50
2023-02-18T12:27:04.068Z,11.50
2023-02-18T12:28:04.145Z,11.50
2023-02-18T12:29:04.887Z,11.56
2023-02-18T12:30:04.161Z,11.56
2023-02-18T12:31:04.174Z,11.50
2023-02-18T12:32:04.184Z,11.56
2023-02-18T12:33:04.146Z,11.56
2023-02-18T12:34:04.145Z,11.56
2023-02-18T12:35:04.322Z,11.56
2023-02-18T12:36:04.307Z,11.56
2023-02-18T12:37:04.316Z,11.56
2023-02-18T12:38:04.453Z,11.56
2023-02-18T12:39:04.316Z,11.56
2023-02-18T12:40:04.398Z,11.56
2023-02-18T12:41:04.320Z,11.56
2023-02-18T12:42:04.469Z,11.56
2023-02-18T12:43:04.492Z,11.56
2023-02-18T12:44:04.399Z,11.56
2023-02-18T12:45:04.466Z,11.56
2023-02-18T12:46:03.668Z,11.62
2023-02-18T12:47:03.592Z,11.62
2023-02-18T12:48:03.603Z,11.62
2023-02-18T12:49:03.592Z,11.62
2023-02-18T12:50:03.674Z,11.62
2023-02-18T12:51:03.675Z,11.62
2023-02-18T12:52:03.688Z,11.56